Portada
METAR-TAF:

METAR-TAF

Aeroports :

Deauville, França

latitud: 49-21-55N, longitud: 000-09-16E, altitud: 146 m

Observació

L'informe es va fer fa 24 minuts, a les 08:30 UTC
Vent 2 kt amb direcció variable
Temperatura 21°C
Humitat 49%
Pressió 1027 hPa
Visibilitat 10 km o més
sense núvols per sota de 1500 mi sense presència de cumulonimbus.

METAR: LFRG 220830Z AUTO VRB02KT CAVOK 21/10 Q1027 NOSIG

Hora: 10:54 (08:54 UTC)

Pronòstic

L'informe es va fer fa 54 minuts, a les 08:00 UTC
Pronòstic vàlid del 22 a les 09 UTC al 22 a les 18 UTC
Vent 3 kt amb direcció variable
Visibilitat 10 km o més
sense núvols per sota de 1500 mi sense presència de cumulonimbus.
Evolucionant progressivament
l' 22 a les 12 UTC al 22 a les 15 UTC
Vent 8 kt del Nord/Nord-Oest

TAF: LFRG 220800Z 2209/2218 VRB03KT CAVOK BECMG 2212/2215 33008KT

Observacions i pronòstics meteorològics de més de 4000 aeroports (METAR i TAF).

Les estacions disponibles són els punts grocs i vermells al mapa.

Posi el ratolí al punt desitjat per veure el nom de l'estació.

Feu clic per veure les observacions i els pronòstics meteorològics.

Per canviar el mapa: feu clic els botons verds amb una creu de color negre per apropar; al botó verd amb un guió per allunyar la imatge; o en les fletxes verdes per a mapes adjacents.


METAR-TAF: